Time;durP1;ratioP1;P1;durP2;ratioP2;P2;SDS_P1;SDS_P2;PMS_P1;PMS_P2;Temp;Humidity;BMP_temperature;BMP_pressure;BME280_temperature;BME280_humidity;BME280_pressure;Samples;Min_cycle;Max_cycle;Signal;HPM_P1;HPM_P2
2021/06/30 00:01:14;;;;;;;42.00;18.63;;;;;;;15.29;73.93;100055.88;5084831;28;20518;-70
2021/06/30 00:03:40;;;;;;;36.55;17.63;;;;;;;15.23;73.77;100059.53;5085103;28;20032;-72
2021/06/30 00:06:06;;;;;;;37.35;17.63;;;;;;;15.18;73.58;100058.81;5084950;28;20024;-71
2021/06/30 00:08:31;;;;;;;37.97;16.80;;;;;;;15.11;73.70;100061.63;5085046;28;20395;-71
2021/06/30 00:10:57;;;;;;;34.80;16.45;;;;;;;15.04;73.85;100065.38;5085224;28;20024;-72
2021/06/30 00:13:24;;;;;;;41.58;18.42;;;;;;;14.96;73.97;100063.00;5085121;28;20055;-71
2021/06/30 00:15:53;;;;;;;32.08;17.52;;;;;;;14.87;74.41;100061.53;5085123;28;20017;-72
2021/06/30 00:18:20;;;;;;;38.50;16.92;;;;;;;14.81;74.61;100056.50;5084826;28;20024;-72
2021/06/30 00:20:46;;;;;;;34.22;17.48;;;;;;;14.73;74.85;100056.72;5085128;28;20099;-72
2021/06/30 00:23:12;;;;;;;30.90;16.67;;;;;;;14.72;74.80;100065.47;5083528;28;20500;-72
2021/06/30 00:25:37;;;;;;;31.83;16.45;;;;;;;14.70;74.86;100059.44;5084905;28;20465;-72
2021/06/30 00:28:03;;;;;;;34.88;15.50;;;;;;;14.68;74.93;100063.84;5084818;28;20030;-72
2021/06/30 00:30:28;;;;;;;34.58;16.67;;;;;;;14.65;74.88;100065.72;5084672;28;20021;-71
2021/06/30 00:32:54;;;;;;;38.28;17.02;;;;;;;14.59;75.13;100058.91;5084646;28;20031;-71
2021/06/30 00:35:19;;;;;;;33.38;16.52;;;;;;;14.58;75.25;100068.50;5084561;28;20512;-71
2021/06/30 00:37:45;;;;;;;41.58;18.40;;;;;;;14.58;75.25;100076.34;5084534;28;20116;-71
2021/06/30 00:40:11;;;;;;;40.70;18.40;;;;;;;14.58;75.23;100068.50;5084460;28;20031;-71
2021/06/30 00:42:37;;;;;;;35.33;17.00;;;;;;;14.57;75.46;100069.41;5084379;28;20073;-71
2021/06/30 00:45:05;;;;;;;38.38;17.20;;;;;;;14.56;75.32;100067.69;5084617;28;20024;-71
2021/06/30 00:47:30;;;;;;;34.63;16.42;;;;;;;14.53;75.37;100061.72;5084184;28;20527;-70
2021/06/30 00:49:56;;;;;;;35.13;17.10;;;;;;;14.52;75.77;100060.00;5084603;28;20020;-70
2021/06/30 00:52:21;;;;;;;36.13;17.65;;;;;;;14.45;75.59;100054.97;5084392;28;20028;-70
2021/06/30 00:54:47;;;;;;;38.97;17.88;;;;;;;14.42;75.71;100062.91;5084251;28;20025;-70
2021/06/30 00:57:14;;;;;;;36.95;18.50;;;;;;;14.37;75.93;100068.25;5084027;28;20357;-70
2021/06/30 00:59:40;;;;;;;39.40;19.17;;;;;;;14.31;76.08;100057.13;5082821;28;20520;-71
2021/06/30 01:02:05;;;;;;;43.22;19.35;;;;;;;14.30;76.14;100064.09;5084156;28;20025;-71
2021/06/30 01:04:31;;;;;;;37.42;17.90;;;;;;;14.30;76.14;100051.06;5083901;28;20023;-71
2021/06/30 01:06:57;;;;;;;40.13;18.98;;;;;;;14.28;76.36;100058.06;5084155;28;20025;-72
2021/06/30 01:09:22;;;;;;;39.22;18.08;;;;;;;14.27;76.34;100061.59;5084023;28;20112;-72
2021/06/30 01:11:48;;;;;;;39.55;17.73;;;;;;;14.32;76.43;100066.66;5083175;28;20024;-71
2021/06/30 01:14:28;;;;;;;37.97;17.00;;;;;;;14.35;76.25;100069.19;5082486;28;20051;-72
2021/06/30 01:16:53;;;;;;;36.55;18.58;;;;;;;14.30;76.17;100061.50;5083756;28;20206;-70
2021/06/30 01:19:21;;;;;;;39.90;21.35;;;;;;;14.30;76.20;100066.72;5083877;28;20033;-70
2021/06/30 01:21:48;;;;;;;39.60;18.70;;;;;;;14.27;76.39;100056.38;5083868;28;20017;-72
2021/06/30 01:24:14;;;;;;;45.70;19.92;;;;;;;14.23;76.76;100054.75;5083819;28;20452;-71
2021/06/30 01:26:40;;;;;;;38.55;19.95;;;;;;;14.25;76.53;100064.25;5083547;28;20092;-71
2021/06/30 01:29:05;;;;;;;42.05;19.83;;;;;;;14.26;76.31;100059.88;5083722;28;20025;-70
2021/06/30 01:31:30;;;;;;;43.72;19.33;;;;;;;14.24;76.49;100059.94;5082244;28;20116;-71
2021/06/30 01:33:56;;;;;;;44.28;20.23;;;;;;;14.24;76.41;100059.06;5082098;28;20066;-72
2021/06/30 01:36:21;;;;;;;40.65;18.55;;;;;;;14.21;76.39;100051.31;5083606;28;20029;-72
2021/06/30 01:38:47;;;;;;;45.38;19.92;;;;;;;14.15;76.56;100054.97;5083595;28;20031;-71
2021/06/30 01:41:14;;;;;;;52.30;22.48;;;;;;;14.14;76.55;100055.88;5083603;28;20024;-71
2021/06/30 01:43:42;;;;;;;49.88;21.85;;;;;;;14.16;76.53;100054.06;5083431;28;20036;-72
2021/06/30 01:46:08;;;;;;;47.10;22.88;;;;;;;14.13;76.57;100049.81;5083149;28;20048;-71
2021/06/30 01:48:34;;;;;;;45.65;20.42;;;;;;;14.12;76.66;100052.47;5082416;28;20420;-71
2021/06/30 01:51:00;;;;;;;51.83;23.70;;;;;;;14.12;76.65;100048.06;5082458;28;20047;-71
2021/06/30 01:53:26;;;;;;;51.80;22.30;;;;;;;14.10;76.78;100038.59;5083441;28;20016;-71
2021/06/30 01:55:51;;;;;;;43.55;22.60;;;;;;;14.11;76.79;100042.91;5081966;28;20035;-73
2021/06/30 01:58:19;;;;;;;46.65;22.33;;;;;;;14.03;76.93;100027.47;5083135;28;20028;-71
2021/06/30 02:00:51;;;;;;;45.53;20.67;;;;;;;14.07;77.01;100036.06;5082028;28;20025;-71
2021/06/30 02:03:17;;;;;;;48.83;20.85;;;;;;;14.07;77.28;100046.50;5083512;28;20032;-71
2021/06/30 02:05:43;;;;;;;43.40;20.95;;;;;;;14.09;77.36;100047.34;5083567;28;20024;-72
2021/06/30 02:08:09;;;;;;;34.38;19.48;;;;;;;14.10;77.34;100049.91;5082968;28;20073;-71
2021/06/30 02:10:34;;;;;;;45.90;21.45;;;;;;;14.09;77.38;100047.34;5083572;28;20231;-71
2021/06/30 02:13:00;;;;;;;51.70;20.88;;;;;;;14.06;77.41;100039.56;5081799;28;20567;-70
2021/06/30 02:15:28;;;;;;;44.65;20.35;;;;;;;14.05;77.52;100040.47;5082058;28;20040;-71
2021/06/30 02:17:56;;;;;;;37.53;18.27;;;;;;;14.05;77.75;100043.94;5082965;28;20500;-70
2021/06/30 02:20:21;;;;;;;43.92;19.52;;;;;;;14.07;77.61;100039.56;5081864;28;20033;-71
2021/06/30 02:22:49;;;;;;;43.25;20.30;;;;;;;14.05;77.75;100024.81;5083692;28;20035;-72
2021/06/30 02:25:18;;;;;;;42.85;19.70;;;;;;;14.05;77.74;100022.19;5087186;28;20320;-72
2021/06/30 02:27:44;;;;;;;37.03;19.30;;;;;;;14.06;77.73;100027.38;5087089;28;20025;-72
2021/06/30 02:30:12;;;;;;;41.70;19.55;;;;;;;14.06;77.95;100026.50;5087244;28;20051;-72
2021/06/30 02:32:38;;;;;;;35.47;18.40;;;;;;;14.04;77.79;100017.88;5086920;28;20025;-72
2021/06/30 02:35:06;;;;;;;34.50;18.92;;;;;;;14.08;77.67;100020.38;5086912;28;20027;-72
2021/06/30 02:37:32;;;;;;;39.88;18.73;;;;;;;14.06;77.69;100016.06;5086580;28;20025;-69
2021/06/30 02:39:58;;;;;;;37.03;18.88;;;;;;;14.04;77.64;100018.72;5085622;28;20028;-71
2021/06/30 02:42:24;;;;;;;41.70;19.60;;;;;;;14.07;77.81;100021.28;5086545;28;20472;-71
2021/06/30 02:44:49;;;;;;;43.35;20.02;;;;;;;14.09;77.71;100016.00;5085402;28;20012;-70
2021/06/30 02:47:14;;;;;;;41.67;19.55;;;;;;;14.17;77.68;100018.38;5086191;28;20040;-71
2021/06/30 02:49:40;;;;;;;39.75;20.42;;;;;;;14.22;77.44;100019.94;5086549;28;20066;-70
2021/06/30 02:52:06;;;;;;;38.28;19.20;;;;;;;14.27;77.27;100013.72;5086594;28;20025;-70
2021/06/30 02:54:31;;;;;;;37.67;19.90;;;;;;;14.26;77.30;100012.88;5086540;28;20021;-71
2021/06/30 02:56:56;;;;;;;44.47;20.15;;;;;;;14.27;77.18;100022.41;5085154;28;20027;-71
2021/06/30 02:59:22;;;;;;;35.80;18.60;;;;;;;14.28;77.00;100016.28;5085130;28;20021;-71
2021/06/30 03:01:47;;;;;;;49.05;20.98;;;;;;;14.34;77.28;100023.09;5086481;28;20036;-71
2021/06/30 03:04:13;;;;;;;45.50;21.08;;;;;;;14.34;77.24;100021.34;5086225;28;20023;-71
2021/06/30 03:06:38;;;;;;;40.58;18.88;;;;;;;14.30;77.00;100011.88;5086395;28;20054;-71
2021/06/30 03:09:03;;;;;;;42.58;18.75;;;;;;;14.27;76.96;100008.50;5086215;28;20434;-71
2021/06/30 03:11:29;;;;;;;40.90;18.02;;;;;;;14.24;77.06;100009.47;5086192;28;20110;-71
2021/06/30 03:13:54;;;;;;;44.53;19.52;;;;;;;14.19;77.04;100006.13;5086194;28;20042;-70
2021/06/30 03:16:19;;;;;;;36.15;18.83;;;;;;;14.17;77.35;100015.78;5086122;28;20024;-72
2021/06/30 03:18:45;;;;;;;34.83;17.63;;;;;;;14.18;77.27;100007.91;5086102;28;20035;-70
2021/06/30 03:21:10;;;;;;;42.80;18.13;;;;;;;14.22;77.50;100016.47;5086035;28;20025;-70
2021/06/30 03:23:36;;;;;;;33.78;17.15;;;;;;;14.20;77.41;100016.53;5085974;28;20068;-71
2021/06/30 03:26:02;;;;;;;36.58;18.10;;;;;;;14.23;77.29;100018.22;5086092;28;20544;-72
2021/06/30 03:28:27;;;;;;;31.52;17.35;;;;;;;14.26;77.32;100018.13;5084836;28;20088;-71
2021/06/30 03:30:53;;;;;;;32.88;17.05;;;;;;;14.29;77.25;100014.53;5085335;28;20102;-71
2021/06/30 03:33:18;;;;;;;39.25;18.35;;;;;;;14.30;77.05;100014.50;5085684;28;20035;-71
2021/06/30 03:35:43;;;;;;;32.28;17.33;;;;;;;14.29;77.09;100010.19;5084758;28;20031;-71
2021/06/30 03:38:09;;;;;;;41.13;17.70;;;;;;;14.32;77.21;100033.59;5084270;28;20017;-70
2021/06/30 03:40:34;;;;;;;44.92;18.85;;;;;;;14.34;77.17;100037.03;5084320;28;20032;-71
2021/06/30 03:42:59;;;;;;;37.08;18.10;;;;;;;14.37;77.12;100025.63;5085590;28;20028;-71
2021/06/30 03:45:25;;;;;;;35.92;16.35;;;;;;;14.42;76.99;100022.88;5085630;28;20020;-71
2021/06/30 03:47:50;;;;;;;33.17;17.38;;;;;;;14.42;76.94;100023.72;5085496;28;20071;-70
2021/06/30 03:50:15;;;;;;;33.40;15.57;;;;;;;14.34;77.07;100017.88;5085633;28;20028;-71
2021/06/30 03:52:41;;;;;;;40.60;17.92;;;;;;;14.40;76.90;100035.09;5084124;28;20050;-70
2021/06/30 03:55:07;;;;;;;35.10;16.98;;;;;;;14.42;76.96;100038.53;5085257;28;20021;-69
2021/06/30 03:57:32;;;;;;;35.90;16.25;;;;;;;14.43;76.93;100043.72;5085272;28;20036;-70
2021/06/30 03:59:58;;;;;;;34.22;16.45;;;;;;;14.46;76.86;100054.06;5085326;28;20027;-73
2021/06/30 04:02:23;;;;;;;30.20;15.15;;;;;;;14.48;76.80;100043.56;5085331;28;20078;-74
2021/06/30 04:04:48;;;;;;;32.58;17.25;;;;;;;14.53;76.85;100049.50;5083997;28;20021;-73
2021/06/30 04:07:14;;;;;;;40.42;16.83;;;;;;;14.57;76.81;100045.88;5085185;28;20037;-72
2021/06/30 04:09:39;;;;;;;29.60;16.65;;;;;;;14.59;76.83;100051.94;5083682;28;20111;-72
2021/06/30 04:12:05;;;;;;;33.25;16.70;;;;;;;14.68;76.80;100058.63;5085179;28;20031;-73
2021/06/30 04:14:30;;;;;;;30.98;16.38;;;;;;;14.76;76.78;100058.38;5085074;28;20017;-71
2021/06/30 04:16:56;;;;;;;26.33;15.32;;;;;;;14.90;76.66;100070.19;5085136;28;20023;-71
2021/06/30 04:19:22;;;;;;;24.65;14.20;;;;;;;15.03;76.45;100061.03;5083510;28;20032;-71
2021/06/30 04:21:48;;;;;;;31.02;17.23;;;;;;;15.15;76.01;100062.41;5084974;28;20028;-71
2021/06/30 04:24:13;;;;;;;35.75;16.33;;;;;;;15.22;75.31;100055.22;5084855;28;20078;-67
2021/06/30 04:26:39;;;;;;;30.95;15.88;;;;;;;15.24;75.44;100069.06;5084748;28;20024;-71
2021/06/30 04:29:05;;;;;;;28.10;15.20;;;;;;;15.31;75.31;100054.91;5084932;28;20073;-72
2021/06/30 04:31:30;;;;;;;30.13;15.98;;;;;;;15.43;75.13;100065.84;5084533;28;20488;-72
2021/06/30 04:33:56;;;;;;;29.25;15.57;;;;;;;15.43;74.57;100061.47;5084521;28;20029;-71
2021/06/30 04:36:21;;;;;;;31.65;16.17;;;;;;;15.49;74.05;100068.25;5084022;28;20054;-71
2021/06/30 04:38:47;;;;;;;28.00;15.00;;;;;;;15.43;73.59;100066.69;5084429;28;20035;-71
2021/06/30 04:41:12;;;;;;;27.83;14.23;;;;;;;15.28;73.63;100062.84;5084467;28;20028;-71
2021/06/30 04:43:39;;;;;;;26.70;14.48;;;;;;;15.23;73.86;100081.31;5084698;28;20038;-70
2021/06/30 04:46:06;;;;;;;33.75;15.55;;;;;;;15.20;73.86;100085.78;5084441;28;20048;-70
2021/06/30 04:48:32;;;;;;;32.13;15.60;;;;;;;15.23;73.93;100085.69;5084348;28;20028;-70
2021/06/30 04:51:00;;;;;;;28.33;14.63;;;;;;;15.26;73.96;100096.03;5084434;28;20088;-72
2021/06/30 04:53:25;;;;;;;30.05;15.43;;;;;;;15.25;73.85;100089.09;5084384;28;20499;-68
2021/06/30 04:55:51;;;;;;;24.20;14.80;;;;;;;15.20;73.94;100094.50;5084047;28;20029;-69
2021/06/30 04:58:17;;;;;;;28.50;14.38;;;;;;;15.26;74.07;100097.78;5084367;28;20012;-68
2021/06/30 05:00:46;;;;;;;29.52;14.00;;;;;;;15.28;73.90;100096.84;5084168;28;20100;-68
2021/06/30 05:03:11;;;;;;;27.40;14.05;;;;;;;15.32;74.05;100092.38;5084530;28;20576;-70
2021/06/30 05:05:36;;;;;;;26.00;12.88;;;;;;;15.44;73.75;100098.94;5084097;28;20021;-69
2021/06/30 05:08:02;;;;;;;32.03;14.98;;;;;;;15.48;73.76;100088.31;5083955;28;20020;-69
2021/06/30 05:10:29;;;;;;;25.52;12.15;;;;;;;15.54;73.39;100087.28;5083973;28;20066;-72
2021/06/30 05:12:54;;;;;;;30.10;14.10;;;;;;;15.57;72.86;100089.78;5084194;28;20028;-69
2021/06/30 05:15:22;;;;;;;20.92;13.23;;;;;;;15.49;72.77;100087.41;5084202;28;20024;-69
2021/06/30 05:17:47;;;;;;;33.55;15.00;;;;;;;15.57;72.84;100092.41;5083922;28;20073;-69
2021/06/30 05:20:13;;;;;;;28.88;14.38;;;;;;;15.60;72.51;100086.19;5084011;28;20032;-68
2021/06/30 05:22:39;;;;;;;23.35;12.73;;;;;;;15.64;72.12;100092.19;5083177;28;20035;-68
2021/06/30 05:25:04;;;;;;;21.80;12.75;;;;;;;15.61;71.93;100077.44;5083782;28;20031;-70
2021/06/30 05:27:30;;;;;;;28.15;14.40;;;;;;;15.69;72.03;100088.50;5083716;28;20020;-70
2021/06/30 05:29:55;;;;;;;30.50;14.43;;;;;;;15.75;71.94;100082.16;5083774;28;20020;-70
2021/06/30 05:32:20;;;;;;;23.55;13.05;;;;;;;15.84;71.85;100081.88;5083923;28;20285;-70
2021/06/30 05:34:46;;;;;;;33.90;13.88;;;;;;;15.94;71.30;100087.59;5082183;28;20024;-70
2021/06/30 05:37:11;;;;;;;20.20;13.25;;;;;;;16.03;70.42;100082.97;5083901;28;20077;-70
2021/06/30 05:39:37;;;;;;;23.70;12.90;;;;;;;16.08;70.75;100074.06;5083643;28;20107;-70
2021/06/30 05:42:02;;;;;;;25.98;13.88;;;;;;;16.37;70.20;100099.22;5083794;28;20371;-70
2021/06/30 05:44:28;;;;;;;24.60;12.55;;;;;;;16.40;69.41;100086.00;5083858;28;20024;-69
2021/06/30 05:46:53;;;;;;;25.02;12.30;;;;;;;16.46;69.66;100094.50;5083455;28;20041;-70
2021/06/30 05:49:18;;;;;;;29.00;13.60;;;;;;;16.71;69.39;100101.41;5083356;28;20021;-69
2021/06/30 05:51:44;;;;;;;25.40;13.13;;;;;;;16.92;68.26;100093.59;5083271;28;20035;-69
2021/06/30 05:54:10;;;;;;;23.15;11.13;;;;;;;16.98;67.49;100103.00;5081835;28;20021;-70
2021/06/30 05:56:37;;;;;;;22.77;11.93;;;;;;;16.97;66.82;100101.28;5083586;28;20058;-69
2021/06/30 05:59:03;;;;;;;19.77;12.15;;;;;;;16.96;66.95;100096.94;5082888;28;20563;-70
2021/06/30 06:01:28;;;;;;;21.27;11.30;;;;;;;17.10;67.17;100096.41;5083593;28;20036;-70
2021/06/30 06:03:54;;;;;;;21.95;12.02;;;;;;;17.20;66.43;100087.25;5083387;28;20536;-69
2021/06/30 06:06:19;;;;;;;23.08;11.27;;;;;;;17.57;66.17;100095.34;5083389;28;20028;-70
2021/06/30 06:08:44;;;;;;;23.20;12.85;;;;;;;17.70;64.65;100097.44;5081950;28;20054;-69
2021/06/30 06:11:13;;;;;;;21.17;11.07;;;;;;;17.83;63.92;100097.75;5083420;28;20066;-70
2021/06/30 06:13:59;;;;;;;18.73;10.88;;;;;;;18.00;62.77;100096.16;5083315;28;20016;-70
2021/06/30 06:16:25;;;;;;;22.05;10.75;;;;;;;18.07;62.33;100108.94;5071167;28;20065;-69
2021/06/30 06:18:50;;;;;;;22.92;11.60;;;;;;;18.04;61.92;100098.59;5081898;28;20268;-69
2021/06/30 06:21:16;;;;;;;17.42;11.23;;;;;;;17.99;61.70;100095.31;5083038;28;20090;-69
2021/06/30 06:23:42;;;;;;;21.55;10.70;;;;;;;18.02;61.18;100103.03;5082982;28;20032;-68
2021/06/30 06:26:08;;;;;;;20.38;12.00;;;;;;;18.13;61.47;100109.63;5083120;28;20047;-71
2021/06/30 06:28:34;;;;;;;15.40;8.88;;;;;;;18.50;60.34;100115.81;5083103;28;20027;-70
2021/06/30 06:31:01;;;;;;;19.42;10.07;;;;;;;18.71;59.42;100115.75;5081934;28;20016;-70
2021/06/30 06:33:26;;;;;;;18.10;10.18;;;;;;;18.90;59.16;100109.59;5083090;28;20024;-70
2021/06/30 06:35:52;;;;;;;16.02;7.95;;;;;;;19.14;58.00;100122.50;5081604;28;20025;-70
2021/06/30 06:38:17;;;;;;;17.48;9.77;;;;;;;19.11;57.56;100126.16;5081504;28;20063;-70
2021/06/30 06:40:43;;;;;;;21.08;9.63;;;;;;;19.33;57.67;100114.56;5083009;28;20023;-71
2021/06/30 06:43:09;;;;;;;17.35;9.85;;;;;;;19.72;55.73;100114.38;5082979;28;20070;-69
2021/06/30 06:45:35;;;;;;;14.25;8.38;;;;;;;19.92;54.89;100121.28;5082747;28;20078;-69
2021/06/30 06:48:01;;;;;;;21.13;9.38;;;;;;;20.03;54.65;100124.19;5082283;28;20131;-69
2021/06/30 06:50:26;;;;;;;18.55;9.35;;;;;;;19.93;53.72;100120.34;5081647;28;20139;-69
2021/06/30 06:52:52;;;;;;;16.75;9.23;;;;;;;19.70;53.68;100117.09;5082779;28;20059;-70
2021/06/30 06:55:18;;;;;;;14.23;8.85;;;;;;;19.89;53.42;100127.53;5082799;28;20036;-68
2021/06/30 06:57:44;;;;;;;15.65;8.65;;;;;;;19.73;53.74;100127.47;5082946;28;20035;-69
2021/06/30 07:00:10;;;;;;;17.88;8.52;;;;;;;19.57;54.45;100117.75;5081375;28;20435;-68
2021/06/30 07:02:35;;;;;;;16.30;8.68;;;;;;;19.61;54.69;100114.94;5082643;28;20047;-68
2021/06/30 07:05:00;;;;;;;14.38;7.43;;;;;;;19.70;54.76;100132.91;5082846;28;20021;-69
2021/06/30 07:07:26;;;;;;;10.90;7.25;;;;;;;19.61;54.55;100117.56;5081387;28;20050;-68
2021/06/30 07:09:51;;;;;;;16.83;9.05;;;;;;;19.61;54.71;100122.84;5083300;28;20020;-68
2021/06/30 07:12:17;;;;;;;14.73;8.25;;;;;;;19.52;54.89;100129.44;5086229;28;20096;-69
2021/06/30 07:14:42;;;;;;;13.10;8.32;;;;;;;19.43;55.26;100136.00;5085959;28;20029;-69
2021/06/30 07:17:08;;;;;;;18.27;9.48;;;;;;;19.23;55.96;100119.44;5086220;28;20044;-68
2021/06/30 07:19:34;;;;;;;17.85;9.15;;;;;;;19.12;56.27;100122.59;5086191;28;20032;-69
2021/06/30 07:21:59;;;;;;;19.00;9.38;;;;;;;19.17;56.83;100125.03;5086059;28;20020;-69
2021/06/30 07:24:25;;;;;;;13.15;7.95;;;;;;;19.31;56.94;100122.53;5086320;28;20024;-69
2021/06/30 07:26:50;;;;;;;16.67;7.93;;;;;;;19.56;56.78;100112.56;5084301;28;20029;-70
2021/06/30 07:29:15;;;;;;;15.57;8.70;;;;;;;19.82;56.15;100124.38;5085063;28;20031;-70
2021/06/30 07:31:41;;;;;;;17.05;9.93;;;;;;;19.99;56.17;100121.78;5085266;28;20024;-70
2021/06/30 07:34:06;;;;;;;16.60;9.32;;;;;;;20.24;55.89;100123.16;5085998;28;20376;-69
2021/06/30 07:36:31;;;;;;;11.20;7.05;;;;;;;20.27;55.10;100117.72;5084687;28;20059;-70
2021/06/30 07:38:57;;;;;;;12.85;7.88;;;;;;;20.25;55.08;100111.69;5085833;28;20051;-70
2021/06/30 07:41:22;;;;;;;14.57;9.20;;;;;;;20.13;55.33;100118.44;5085697;28;20480;-70
2021/06/30 07:43:48;;;;;;;15.45;8.93;;;;;;;20.05;55.21;100132.88;5084330;28;20052;-69
2021/06/30 07:46:13;;;;;;;14.20;8.23;;;;;;;19.88;55.43;100122.34;5085389;28;20084;-69
2021/06/30 07:48:39;;;;;;;12.70;8.35;;;;;;;19.68;56.27;100113.72;5085625;28;20031;-69
2021/06/30 07:51:04;;;;;;;12.52;8.52;;;;;;;19.68;56.79;100126.88;5085428;28;20025;-69
2021/06/30 07:53:30;;;;;;;10.20;7.55;;;;;;;19.52;57.45;100108.38;5084153;28;20451;-69
2021/06/30 07:55:56;;;;;;;12.77;8.88;;;;;;;19.77;57.04;100123.78;5085416;28;20029;-70
2021/06/30 07:58:21;;;;;;;15.13;7.38;;;;;;;19.91;56.58;100122.19;5084024;28;20024;-69
2021/06/30 08:00:47;;;;;;;10.25;7.55;;;;;;;19.87;56.86;100147.00;5083987;28;20024;-69
2021/06/30 08:03:13;;;;;;;14.80;8.07;;;;;;;19.92;56.89;100135.28;5085523;28;20025;-70
2021/06/30 08:05:38;;;;;;;16.05;8.57;;;;;;;19.91;57.14;100138.00;5085438;28;20523;-69
2021/06/30 08:08:04;;;;;;;15.35;7.68;;;;;;;19.84;57.36;100123.44;5085080;28;20028;-70
2021/06/30 08:10:29;;;;;;;13.43;8.75;;;;;;;19.92;57.01;100124.75;5085130;28;20024;-70
2021/06/30 08:12:55;;;;;;;13.88;8.57;;;;;;;20.03;57.61;100124.19;5085137;28;20091;-69
2021/06/30 08:15:20;;;;;;;10.60;7.85;;;;;;;20.09;57.14;100120.41;5083603;28;20481;-69
2021/06/30 08:17:46;;;;;;;13.55;8.13;;;;;;;20.12;56.88;100120.25;5085124;28;20025;-69
2021/06/30 08:20:12;;;;;;;11.15;7.82;;;;;;;20.04;57.34;100120.66;5084639;28;20028;-69
2021/06/30 08:22:38;;;;;;;14.27;8.02;;;;;;;20.21;57.16;100123.31;5084744;28;20025;-70
2021/06/30 08:25:04;;;;;;;13.52;8.68;;;;;;;20.23;57.11;100127.56;5084747;28;20024;-70
2021/06/30 08:27:29;;;;;;;10.70;7.38;;;;;;;20.20;56.76;100114.56;5085090;28;20020;-69
2021/06/30 08:29:55;;;;;;;14.25;8.05;;;;;;;20.34;57.03;100120.84;5083359;28;20027;-69
2021/06/30 08:32:24;;;;;;;13.43;7.30;;;;;;;20.68;56.19;100122.50;5083309;28;20017;-68
2021/06/30 08:34:50;;;;;;;21.20;9.27;;;;;;;20.83;55.82;100122.56;5084589;28;20035;-69
2021/06/30 08:37:15;;;;;;;8.35;6.55;;;;;;;21.16;54.79;100133.97;5084816;28;20024;-69
2021/06/30 08:39:40;;;;;;;12.27;7.85;;;;;;;21.30;54.44;100117.31;5083334;28;20024;-69
2021/06/30 08:42:06;;;;;;;11.88;8.32;;;;;;;21.60;54.24;100116.44;5082931;28;20031;-70
2021/06/30 08:44:32;;;;;;;12.15;8.05;;;;;;;21.90;53.08;100120.84;5084590;28;20029;-69
2021/06/30 08:46:58;;;;;;;11.25;7.38;;;;;;;22.01;52.31;100117.56;5084073;28;20059;-69
2021/06/30 08:49:26;;;;;;;13.15;7.50;;;;;;;22.10;52.75;100115.28;5084492;28;20039;-70
2021/06/30 08:51:53;;;;;;;9.30;6.40;;;;;;;22.25;51.45;100119.63;5082976;28;20052;-70
2021/06/30 08:54:20;;;;;;;12.70;6.13;;;;;;;22.24;51.48;100115.28;5084538;28;20054;-69
2021/06/30 08:56:47;;;;;;;13.43;7.25;;;;;;;22.38;51.40;100113.59;5084391;28;20396;-70
2021/06/30 08:59:12;;;;;;;11.73;6.95;;;;;;;22.87;51.36;100116.69;5084352;28;20085;-70
2021/06/30 09:01:38;;;;;;;7.93;6.70;;;;;;;23.56;50.05;100113.09;5084096;28;20107;-70
2021/06/30 09:04:04;;;;;;;12.32;6.55;;;;;;;24.04;48.41;100126.66;5084365;28;20036;-70
2021/06/30 09:06:31;;;;;;;9.30;7.25;;;;;;;24.03;47.84;100125.78;5084076;28;20046;-70
2021/06/30 09:09:00;;;;;;;11.55;7.18;;;;;;;24.09;47.69;100130.66;5084161;28;20020;-71
2021/06/30 09:11:27;;;;;;;10.40;7.28;;;;;;;24.21;47.05;100121.03;5083889;28;20020;-70
2021/06/30 09:14:19;;;;;;;13.77;8.10;;;;;;;24.18;47.33;100123.91;5083918;28;20107;-70
2021/06/30 09:20:02;;;;;;;12.55;8.30;;;;;;;24.72;46.03;100116.53;5083847;28;20021;-70
2021/06/30 09:22:39;;;;;;;9.02;7.35;;;;;;;24.74;45.66;100129.69;5083799;28;20023;-71
2021/06/30 09:25:05;;;;;;;10.07;6.00;;;;;;;24.94;45.26;100133.56;5083835;28;20028;-70
2021/06/30 09:27:42;;;;;;;11.02;6.70;;;;;;;25.32;44.20;100149.44;5083821;28;20020;-70
2021/06/30 09:30:10;;;;;;;7.93;6.05;;;;;;;25.16;43.60;100137.28;5083503;28;20053;-68
2021/06/30 09:32:35;;;;;;;12.32;7.63;;;;;;;24.98;44.10;100137.72;5082970;28;20027;-70
2021/06/30 09:35:21;;;;;;;9.82;6.22;;;;;;;24.90;44.21;100129.44;5083716;28;20103;-71
2021/06/30 09:37:48;;;;;;;9.48;6.70;;;;;;;25.09;43.87;100136.91;5083769;28;20568;-70
2021/06/30 09:40:16;;;;;;;7.65;6.07;;;;;;;25.27;43.33;100136.50;5083427;28;20028;-70
2021/06/30 09:42:42;;;;;;;9.15;6.68;;;;;;;25.29;43.21;100147.00;5081996;28;20023;-71
2021/06/30 09:45:18;;;;;;;10.23;6.30;;;;;;;25.29;42.67;100139.03;5083437;28;20024;-70
2021/06/30 09:47:54;;;;;;;8.20;6.15;;;;;;;25.60;42.97;100140.19;5083250;28;20036;-70
2021/06/30 09:50:36;;;;;;;7.18;6.03;;;;;;;26.11;41.46;100150.56;5083279;28;20024;-70
2021/06/30 09:53:02;;;;;;;7.22;5.47;;;;;;;25.76;41.49;100132.88;5083452;28;20220;-72
2021/06/30 09:55:32;;;;;;;8.90;6.05;;;;;;;25.90;41.56;100139.78;5083380;28;20035;-69
2021/06/30 09:57:59;;;;;;;7.47;5.88;;;;;;;25.88;40.67;100144.38;5083588;28;20028;-71
2021/06/30 10:00:28;;;;;;;12.10;6.22;;;;;;;25.70;41.23;100147.50;5083118;28;20217;-70
2021/06/30 10:02:55;;;;;;;9.07;6.43;;;;;;;25.24;42.08;100142.88;5083395;28;20084;-71
2021/06/30 10:05:28;;;;;;;9.77;5.63;;;;;;;25.63;42.40;100125.84;5083520;28;20028;-71
2021/06/30 10:08:13;;;;;;;12.32;6.72;;;;;;;26.11;41.84;100142.56;5083307;28;20027;-70
2021/06/30 10:10:39;;;;;;;6.63;6.03;;;;;;;26.20;40.26;100136.50;5083321;28;20059;-71
2021/06/30 10:13:04;;;;;;;8.07;6.40;;;;;;;26.43;40.82;100133.88;5083240;28;20022;-71
2021/06/30 10:15:31;;;;;;;9.32;5.50;;;;;;;26.50;41.18;100136.91;5083097;28;20086;-72
2021/06/30 10:17:58;;;;;;;8.82;6.60;;;;;;;26.27;41.75;100136.88;5083246;28;20021;-71
2021/06/30 10:20:24;;;;;;;8.00;5.75;;;;;;;26.08;41.96;100140.16;5083134;28;20146;-72
2021/06/30 10:22:50;;;;;;;6.80;5.55;;;;;;;25.86;41.94;100131.22;5081667;28;20028;-71
2021/06/30 10:25:15;;;;;;;8.40;6.40;;;;;;;25.32;42.97;100149.44;5082801;28;20092;-72
2021/06/30 10:27:41;;;;;;;9.52;5.97;;;;;;;25.18;43.37;100156.59;5083122;28;20041;-71
2021/06/30 10:30:08;;;;;;;8.82;5.93;;;;;;;24.75;43.76;100150.81;5081757;28;20039;-70
2021/06/30 10:32:33;;;;;;;7.50;5.97;;;;;;;24.70;44.39;100147.66;5082943;28;20094;-71
2021/06/30 10:35:04;;;;;;;6.38;5.47;;;;;;;25.09;44.65;100144.88;5083106;28;20016;-74
2021/06/30 10:37:36;;;;;;;7.63;6.18;;;;;;;25.36;42.93;100151.72;5082978;28;20032;-70
2021/06/30 10:40:13;;;;;;;6.40;5.45;;;;;;;25.34;43.13;100144.81;5083088;28;20032;-71
2021/06/30 10:42:43;;;;;;;7.75;5.20;;;;;;;24.96;43.44;100152.03;5083081;28;20025;-71
2021/06/30 10:45:12;;;;;;;10.88;5.55;;;;;;;24.82;43.51;100145.91;5085683;28;20016;-70
2021/06/30 10:47:48;;;;;;;10.60;6.05;;;;;;;25.09;43.39;100144.88;5086562;28;20100;-72
2021/06/30 10:50:16;;;;;;;7.55;5.00;;;;;;;25.23;42.61;100150.94;5086531;28;20052;-72
2021/06/30 10:52:42;;;;;;;9.32;5.47;;;;;;;25.21;42.47;100151.06;5085273;28;20024;-71
2021/06/30 10:55:30;;;;;;;8.13;5.50;;;;;;;24.75;42.98;100148.16;5085361;28;20111;-72
2021/06/30 10:58:10;;;;;;;6.88;5.90;;;;;;;24.63;43.90;100138.44;5086777;28;20021;-71
2021/06/30 11:00:37;;;;;;;8.45;5.32;;;;;;;24.80;43.84;100134.56;5086300;28;20088;-71
2021/06/30 11:03:36;;;;;;;11.82;5.88;;;;;;;24.68;43.46;100138.94;5086674;28;20028;-72
2021/06/30 11:06:14;;;;;;;8.15;5.80;;;;;;;24.33;44.31;100153.78;5086828;28;20036;-71
2021/06/30 11:08:42;;;;;;;8.60;6.00;;;;;;;23.94;45.27;100150.28;5086515;28;20016;-71
2021/06/30 11:11:08;;;;;;;7.45;5.60;;;;;;;23.70;45.72;100151.88;5086305;28;20020;-69
2021/06/30 11:13:56;;;;;;;6.63;5.75;;;;;;;23.46;46.22;100154.38;5085123;28;20021;-70
2021/06/30 11:16:36;;;;;;;9.73;5.97;;;;;;;23.11;47.25;100153.09;5086164;28;20036;-69